createdAt,value
2023-01-08T00:03:00.414Z,100882.70
2023-01-08T00:08:03.887Z,100881.71
2023-01-08T00:13:06.945Z,100880.09
2023-01-08T00:18:09.926Z,100877.62
2023-01-08T00:23:14.948Z,100881.82
2023-01-08T00:28:17.789Z,100877.40
2023-01-08T00:33:20.637Z,100884.08
2023-01-08T00:38:28.034Z,100879.30
2023-01-08T00:43:30.889Z,100875.63
2023-01-08T00:48:38.843Z,100868.66
2023-01-08T00:53:41.888Z,100868.98
2023-01-08T00:58:44.587Z,100867.30
2023-01-08T01:03:47.365Z,100863.05
2023-01-08T01:08:50.255Z,100858.36
2023-01-08T01:13:54.659Z,100854.11
2023-01-08T01:18:58.407Z,100843.15
2023-01-08T01:24:05.250Z,100840.77
2023-01-08T01:29:09.714Z,100841.41
2023-01-08T01:34:12.446Z,100839.50
2023-01-08T01:39:16.549Z,100833.98
2023-01-08T01:44:39.771Z,100839.42
2023-01-08T01:49:44.149Z,100831.15
2023-01-08T01:54:46.845Z,100825.84
2023-01-08T01:59:49.605Z,100820.82
2023-01-08T02:04:52.335Z,100804.48
2023-01-08T02:10:18.481Z,100796.02
2023-01-08T02:15:44.960Z,100785.90
2023-01-08T02:20:52.327Z,100783.34
2023-01-08T02:26:10.290Z,100780.00
2023-01-08T02:31:13.677Z,100783.52
2023-01-08T02:36:27.556Z,100786.23
2023-01-08T02:41:51.444Z,100777.72
2023-01-08T02:46:54.188Z,100783.02
2023-01-08T02:51:57.030Z,100778.51
2023-01-08T02:57:06.291Z,100773.34
2023-01-08T03:02:09.211Z,100773.17
2023-01-08T03:07:12.128Z,100775.12
2023-01-08T03:12:22.582Z,100766.56
2023-01-08T03:17:43.822Z,100755.63
2023-01-08T03:22:50.810Z,100755.95
2023-01-08T03:28:03.864Z,100754.60
2023-01-08T03:33:06.631Z,100751.26
2023-01-08T03:38:21.113Z,100745.23
2023-01-08T03:43:23.839Z,100747.06
2023-01-08T03:48:26.658Z,100741.29
2023-01-08T03:53:29.438Z,100742.98
2023-01-08T03:58:32.211Z,100737.33
2023-01-08T04:03:35.028Z,100745.06
2023-01-08T04:08:38.267Z,100745.40
2023-01-08T04:13:41.039Z,100742.61
2023-01-08T04:18:43.832Z,100742.55
2023-01-08T04:23:47.420Z,100742.41
2023-01-08T04:28:50.213Z,100743.95
2023-01-08T04:33:53.014Z,100739.27
2023-01-08T04:38:55.813Z,100730.36
2023-01-08T04:43:58.638Z,100725.98
2023-01-08T04:49:01.877Z,100719.29
2023-01-08T04:54:04.699Z,100719.24
2023-01-08T04:59:07.425Z,100721.68
2023-01-08T05:04:10.387Z,100724.51
2023-01-08T05:09:13.310Z,100719.18
2023-01-08T05:14:16.190Z,100728.12
2023-01-08T05:19:18.951Z,100725.40
2023-01-08T05:24:21.755Z,100719.54
2023-01-08T05:29:24.531Z,100718.82
2023-01-08T05:34:27.470Z,100713.05
2023-01-08T05:39:32.218Z,100708.75
2023-01-08T05:44:34.941Z,100711.54
2023-01-08T05:49:39.704Z,100709.48
2023-01-08T05:54:42.438Z,100702.02
2023-01-08T05:59:45.230Z,100697.71
2023-01-08T06:04:48.474Z,100701.56
2023-01-08T06:09:51.205Z,100710.45
2023-01-08T06:14:53.943Z,100706.33
2023-01-08T06:19:56.680Z,100703.25
2023-01-08T06:24:59.391Z,100696.45
2023-01-08T06:30:04.149Z,100697.92
2023-01-08T06:35:07.488Z,100700.91
2023-01-08T06:40:11.000Z,100696.52
2023-01-08T06:45:34.060Z,100693.69
2023-01-08T06:50:36.843Z,100683.03
2023-01-08T06:55:39.887Z,100679.57
2023-01-08T07:00:44.098Z,100676.02
2023-01-08T07:05:47.500Z,100675.65
2023-01-08T07:10:50.672Z,100668.98
2023-01-08T07:15:53.482Z,100665.21
2023-01-08T07:20:56.306Z,100670.31
2023-01-08T07:26:03.573Z,100670.30
2023-01-08T07:31:06.508Z,100669.39
2023-01-08T07:36:09.472Z,100658.21
2023-01-08T07:41:13.318Z,100657.84
2023-01-08T07:46:16.417Z,100648.16
2023-01-08T07:51:19.265Z,100640.85
2023-01-08T07:56:22.349Z,100620.73
2023-01-08T08:01:26.278Z,100615.61
2023-01-08T08:06:29.300Z,100615.37
2023-01-08T08:11:32.072Z,100622.11
2023-01-08T08:16:34.915Z,100618.14
2023-01-08T08:21:37.668Z,100610.14
2023-01-08T08:26:41.867Z,100618.41
2023-01-08T08:31:44.614Z,100625.20
2023-01-08T08:36:47.846Z,100622.61
2023-01-08T08:41:50.668Z,100611.36
2023-01-08T08:46:53.612Z,100608.22
2023-01-08T08:51:56.772Z,100595.86
2023-01-08T08:56:59.664Z,100590.64
2023-01-08T09:02:03.804Z,100574.55
2023-01-08T09:07:06.759Z,100576.32
2023-01-08T09:12:12.218Z,100572.13
2023-01-08T09:17:15.065Z,100569.14
2023-01-08T09:22:17.959Z,100578.94
2023-01-08T09:27:20.722Z,100579.38
2023-01-08T09:32:23.541Z,100574.13
2023-01-08T09:37:26.424Z,100569.17
2023-01-08T09:42:29.279Z,100552.55
2023-01-08T09:47:38.759Z,100547.95
2023-01-08T09:52:43.652Z,100552.88
2023-01-08T09:57:47.920Z,100550.00
2023-01-08T10:02:54.214Z,100537.08
2023-01-08T10:07:57.256Z,100543.46
2023-01-08T10:13:01.186Z,100540.04
2023-01-08T10:18:07.125Z,100535.77
2023-01-08T10:23:12.847Z,100530.43
2023-01-08T10:28:26.552Z,100522.19
2023-01-08T10:33:52.693Z,100513.04
2023-01-08T10:39:00.583Z,100507.20
2023-01-08T10:44:05.352Z,100495.02
2023-01-08T10:49:08.180Z,100494.13
2023-01-08T10:54:26.740Z,100482.85
2023-01-08T10:59:29.552Z,100468.98
2023-01-08T11:04:34.276Z,100462.04
2023-01-08T11:09:48.166Z,100458.69
2023-01-08T11:14:51.788Z,100449.95
2023-01-08T11:19:55.953Z,100442.34
2023-01-08T11:24:58.792Z,100443.89
2023-01-08T11:30:19.464Z,100444.14
2023-01-08T11:35:39.589Z,100443.23
2023-01-08T11:41:09.949Z,100436.43
2023-01-08T11:46:45.820Z,100432.59
2023-01-08T11:52:13.523Z,100422.96
2023-01-08T11:57:59.795Z,100419.89
2023-01-08T12:03:24.410Z,100421.41
2023-01-08T12:09:02.637Z,100420.77
2023-01-08T12:14:45.070Z,100418.48
2023-01-08T12:20:17.962Z,100413.15
2023-01-08T12:25:38.131Z,100412.16
2023-01-08T12:31:04.171Z,100405.66
2023-01-08T12:36:14.412Z,100395.23
2023-01-08T12:41:18.914Z,100398.50
2023-01-08T12:46:21.777Z,100404.83
2023-01-08T12:52:03.297Z,100398.58
2023-01-08T12:58:26.403Z,100393.80
2023-01-08T13:03:29.118Z,100396.88
2023-01-08T13:08:34.753Z,100401.85
2023-01-08T13:13:41.858Z,100399.01
2023-01-08T13:19:04.375Z,100396.70
2023-01-08T13:24:37.393Z,100399.73
2023-01-08T13:29:47.650Z,100391.75
2023-01-08T13:35:31.215Z,100381.38
2023-01-08T13:40:51.834Z,100376.09
2023-01-08T13:46:02.320Z,100372.57
2023-01-08T13:51:06.339Z,100374.89
2023-01-08T13:56:18.597Z,100367.24
2023-01-08T14:01:22.540Z,100361.87
2023-01-08T14:06:27.035Z,100360.36
2023-01-08T14:11:45.425Z,100362.98
2023-01-08T14:16:50.261Z,100364.27
2023-01-08T14:21:58.589Z,100368.70
2023-01-08T14:27:01.422Z,100366.59
2023-01-08T14:32:16.473Z,100367.84
2023-01-08T14:37:19.601Z,100361.80
2023-01-08T14:42:42.202Z,100355.28
2023-01-08T14:47:49.226Z,100347.83
2023-01-08T14:52:58.860Z,100345.38
2023-01-08T14:58:01.701Z,100345.21
2023-01-08T15:03:04.681Z,100339.89
2023-01-08T15:08:32.632Z,100339.34
2023-01-08T15:13:38.174Z,100326.08
2023-01-08T15:18:49.178Z,100311.45
2023-01-08T15:23:54.891Z,100310.25
2023-01-08T15:29:00.332Z,100307.96
2023-01-08T15:34:03.131Z,100302.55
2023-01-08T15:39:06.018Z,100299.89
2023-01-08T15:44:10.341Z,100297.83
2023-01-08T15:49:13.489Z,100298.14
2023-01-08T15:54:16.341Z,100302.59
2023-01-08T15:59:19.042Z,100301.91
2023-01-08T16:04:22.809Z,100301.48
2023-01-08T16:09:25.937Z,100290.17
2023-01-08T16:14:30.463Z,100273.30
2023-01-08T16:19:33.718Z,100264.81
2023-01-08T16:24:36.438Z,100255.36
2023-01-08T16:29:39.292Z,100253.24
2023-01-08T16:34:42.190Z,100247.91
2023-01-08T16:39:44.924Z,100242.30
2023-01-08T16:44:48.024Z,100246.70
2023-01-08T16:49:51.180Z,100231.52
2023-01-08T16:54:54.015Z,100218.57
2023-01-08T16:59:57.103Z,100241.40
2023-01-08T17:04:59.865Z,100254.77
2023-01-08T17:10:02.897Z,100238.70
2023-01-08T17:15:06.597Z,100248.50
2023-01-08T17:20:10.288Z,100247.30
2023-01-08T17:25:13.136Z,100237.95
2023-01-08T17:30:15.993Z,100224.88
2023-01-08T17:35:18.725Z,100224.24
2023-01-08T17:40:21.518Z,100213.36
2023-01-08T17:45:25.222Z,100207.64
2023-01-08T17:50:28.061Z,100204.53
2023-01-08T17:55:30.879Z,100213.90
2023-01-08T18:00:33.609Z,100202.30
2023-01-08T18:05:36.323Z,100208.33
2023-01-08T18:10:39.218Z,100201.38
2023-01-08T18:15:41.961Z,100187.92
2023-01-08T18:20:44.882Z,100166.61
2023-01-08T18:25:48.479Z,100162.63
2023-01-08T18:30:51.238Z,100162.73
2023-01-08T18:35:54.160Z,100163.20
2023-01-08T18:40:58.502Z,100172.88
2023-01-08T18:46:07.102Z,100159.27
2023-01-08T18:51:31.282Z,100179.27
2023-01-08T18:56:36.346Z,100186.54
2023-01-08T19:01:39.318Z,100190.24
2023-01-08T19:06:42.362Z,100180.02
2023-01-08T19:11:45.402Z,100172.22
2023-01-08T19:16:51.336Z,100173.88
2023-01-08T19:21:57.589Z,100167.73
2023-01-08T19:27:01.766Z,100166.26
2023-01-08T19:32:09.484Z,100159.20
2023-01-08T19:37:13.850Z,100152.20
2023-01-08T19:42:35.200Z,100158.65
2023-01-08T19:47:39.073Z,100162.50
2023-01-08T19:52:42.346Z,100171.35
2023-01-08T19:57:49.251Z,100177.45
2023-01-08T20:02:52.999Z,100185.49
2023-01-08T20:07:55.910Z,100184.49
2023-01-08T20:12:58.721Z,100182.41
2023-01-08T20:18:01.510Z,100173.36
2023-01-08T20:23:04.263Z,100174.27
2023-01-08T20:28:06.971Z,100173.23
2023-01-08T20:33:09.726Z,100168.59
2023-01-08T20:38:13.678Z,100158.40
2023-01-08T20:43:16.547Z,100136.90
2023-01-08T20:48:19.468Z,100103.96
2023-01-08T20:53:22.869Z,100091.29
2023-01-08T20:58:25.694Z,100074.25
2023-01-08T21:03:28.389Z,100055.23
2023-01-08T21:08:31.119Z,100047.41
2023-01-08T21:13:34.234Z,100046.48
2023-01-08T21:18:43.890Z,100040.09
2023-01-08T21:23:47.604Z,100026.05
2023-01-08T21:28:52.889Z,100011.63
2023-01-08T21:33:58.000Z,100010.27
2023-01-08T21:39:01.600Z,100004.04
2023-01-08T21:44:24.576Z,100003.00
2023-01-08T21:49:27.830Z,99992.80
2023-01-08T21:54:30.563Z,99987.82
2023-01-08T21:59:34.395Z,99980.55
2023-01-08T22:04:37.217Z,99976.54
2023-01-08T22:09:40.024Z,99974.56
2023-01-08T22:14:43.059Z,99966.00
2023-01-08T22:19:45.863Z,99964.06
2023-01-08T22:24:52.309Z,99962.32
2023-01-08T22:29:55.052Z,99959.30
2023-01-08T22:34:57.824Z,99954.80
2023-01-08T22:40:00.723Z,99950.36
2023-01-08T22:45:03.871Z,99948.79
2023-01-08T22:50:06.955Z,99947.87
2023-01-08T22:55:09.949Z,99937.96
2023-01-08T23:00:13.825Z,99930.86
2023-01-08T23:05:16.754Z,99928.04
2023-01-08T23:10:19.508Z,99922.07
2023-01-08T23:15:22.649Z,99911.53
2023-01-08T23:20:25.755Z,99884.43
2023-01-08T23:25:30.191Z,99879.54
2023-01-08T23:30:32.991Z,99873.25
2023-01-08T23:35:35.914Z,99859.42
2023-01-08T23:40:43.266Z,99851.77
2023-01-08T23:45:46.048Z,99854.20
2023-01-08T23:50:48.809Z,99850.09
2023-01-08T23:55:51.682Z,99838.61
